createdAt,value
2022-08-18T00:02:36.466Z,20.3
2022-08-18T00:12:36.358Z,20.4
2022-08-18T00:17:36.358Z,20.4
2022-08-18T00:22:36.355Z,20.4
2022-08-18T00:27:49.712Z,20.5
2022-08-18T00:32:36.359Z,20.5
2022-08-18T00:37:49.722Z,20.5
2022-08-18T00:42:36.368Z,20.6
2022-08-18T00:47:42.799Z,20.6
2022-08-18T00:52:36.370Z,20.6
2022-08-18T00:57:36.364Z,20.6
2022-08-18T01:02:36.374Z,20.6
2022-08-18T01:07:36.374Z,20.6
2022-08-18T01:12:45.152Z,20.6
2022-08-18T01:17:36.374Z,20.6
2022-08-18T01:22:36.379Z,20.6
2022-08-18T01:27:36.382Z,20.6
2022-08-18T01:32:36.393Z,20.7
2022-08-18T01:42:36.388Z,20.7
2022-08-18T01:47:47.897Z,20.7
2022-08-18T01:52:36.387Z,20.7
2022-08-18T01:57:36.393Z,20.7
2022-08-18T02:02:36.397Z,20.7
2022-08-18T02:07:36.638Z,20.7
2022-08-18T02:12:36.407Z,20.6
2022-08-18T02:17:36.400Z,20.6
2022-08-18T02:22:36.414Z,20.5
2022-08-18T02:27:36.404Z,20.5
2022-08-18T02:32:36.409Z,20.5
2022-08-18T02:37:36.408Z,20.5
2022-08-18T02:42:36.407Z,20.4
2022-08-18T02:52:36.406Z,20.3
2022-08-18T02:57:36.412Z,20.3
2022-08-18T03:02:36.419Z,20.3
2022-08-18T03:07:36.416Z,20.3
2022-08-18T03:12:36.421Z,20.3
2022-08-18T03:17:36.425Z,20.3
2022-08-18T03:27:36.423Z,20.2
2022-08-18T03:32:36.430Z,20.2
2022-08-18T03:37:36.424Z,20.2
2022-08-18T03:42:36.428Z,20.2
2022-08-18T03:47:36.440Z,20.2
2022-08-18T03:52:36.428Z,20.1
2022-08-18T03:57:39.141Z,20.0
2022-08-18T04:02:36.433Z,19.9
2022-08-18T04:07:36.436Z,19.9
2022-08-18T04:12:36.443Z,19.8
2022-08-18T04:17:36.436Z,19.8
2022-08-18T04:22:36.447Z,19.7
2022-08-18T04:27:36.445Z,19.7
2022-08-18T04:32:36.437Z,19.6
2022-08-18T04:37:37.967Z,19.6
2022-08-18T04:42:36.446Z,19.6
2022-08-18T04:47:36.448Z,19.6
2022-08-18T04:52:39.766Z,19.7
2022-08-18T04:57:36.444Z,19.7
2022-08-18T05:02:36.447Z,19.8
2022-08-18T05:07:36.454Z,19.9
2022-08-18T05:12:36.462Z,19.9
2022-08-18T05:17:36.460Z,20.0
2022-08-18T05:22:36.467Z,20.0
2022-08-18T05:27:36.461Z,20.0
2022-08-18T05:32:47.314Z,20.0
2022-08-18T05:37:36.471Z,20.0
2022-08-18T05:42:36.473Z,20.0
2022-08-18T05:47:36.470Z,20.1
2022-08-18T05:52:36.478Z,20.2
2022-08-18T06:02:36.566Z,20.3
2022-08-18T06:07:36.478Z,20.3
2022-08-18T06:22:36.491Z,20.5
2022-08-18T06:27:36.487Z,20.6
2022-08-18T06:32:36.482Z,20.7
2022-08-18T06:37:36.490Z,20.9
2022-08-18T06:42:40.318Z,21.1
2022-08-18T06:47:36.494Z,21.2
2022-08-18T06:52:36.498Z,21.3
2022-08-18T07:02:36.507Z,21.5
2022-08-18T07:07:40.425Z,21.5
2022-08-18T07:17:43.076Z,21.8
2022-08-18T07:22:39.509Z,22.0
2022-08-18T07:27:36.531Z,22.1
2022-08-18T07:32:36.532Z,22.2
2022-08-18T07:37:36.522Z,22.4
2022-08-18T07:42:54.093Z,22.8
2022-08-18T07:47:36.531Z,23.2
2022-08-18T07:52:47.072Z,23.3
2022-08-18T07:57:42.007Z,23.3
2022-08-18T08:02:36.579Z,23.4
2022-08-18T08:07:36.547Z,23.6
2022-08-18T08:12:36.542Z,23.7
2022-08-18T08:17:36.545Z,23.7
2022-08-18T08:22:36.544Z,23.6
2022-08-18T08:27:36.555Z,23.5
2022-08-18T08:32:36.567Z,23.5
2022-08-18T08:37:36.559Z,23.8
2022-08-18T08:42:40.224Z,24.1
2022-08-18T08:47:36.560Z,24.3
2022-08-18T08:52:36.562Z,24.3
2022-08-18T08:57:36.565Z,24.1
2022-08-18T09:02:47.731Z,24.2
2022-08-18T09:07:38.377Z,24.4
2022-08-18T09:12:36.569Z,24.7
2022-08-18T09:17:36.576Z,24.8
2022-08-18T09:22:36.587Z,24.7
2022-08-18T09:27:53.816Z,24.8
2022-08-18T09:32:36.587Z,24.9
2022-08-18T09:37:36.584Z,25.0
2022-08-18T09:42:59.930Z,25.0
2022-08-18T09:47:36.594Z,25.0
2022-08-18T09:52:37.429Z,24.9
2022-08-18T10:02:36.765Z,25.1
2022-08-18T10:12:36.601Z,25.3
2022-08-18T10:17:36.605Z,25.3
2022-08-18T10:22:36.606Z,25.4
2022-08-18T10:27:36.657Z,25.4
2022-08-18T10:32:36.615Z,25.5
2022-08-18T10:37:36.616Z,25.7
2022-08-18T10:42:37.473Z,25.9
2022-08-18T10:47:36.618Z,25.9
2022-08-18T10:52:39.040Z,26.0
2022-08-18T10:57:36.619Z,26.0
2022-08-18T11:02:37.182Z,26.1
2022-08-18T11:07:36.633Z,26.2
2022-08-18T11:12:36.628Z,26.2
2022-08-18T11:17:36.642Z,26.3
2022-08-18T11:22:36.637Z,26.4
2022-08-18T11:27:36.652Z,26.7
2022-08-18T11:32:36.642Z,26.9
2022-08-18T11:37:48.918Z,27.0
2022-08-18T11:42:36.651Z,27.1
2022-08-18T11:47:36.644Z,27.2
2022-08-18T11:52:36.650Z,27.3
2022-08-18T11:57:36.651Z,27.5
2022-08-18T12:02:36.655Z,27.6
2022-08-18T12:07:37.040Z,27.6
2022-08-18T12:12:36.661Z,27.6
2022-08-18T12:17:36.659Z,27.7
2022-08-18T12:22:36.661Z,27.9
2022-08-18T12:27:36.667Z,27.9
2022-08-18T12:32:49.069Z,27.8
2022-08-18T12:42:36.666Z,27.7
2022-08-18T12:47:36.671Z,27.8
2022-08-18T12:52:36.675Z,27.8
2022-08-18T13:02:36.683Z,27.7
2022-08-18T13:07:36.685Z,27.6
2022-08-18T13:12:36.689Z,27.5
2022-08-18T13:17:36.689Z,27.4
2022-08-18T13:22:36.688Z,27.3
2022-08-18T13:27:37.618Z,27.2
2022-08-18T13:32:58.275Z,27.1
2022-08-18T13:37:36.695Z,27.0
2022-08-18T13:42:50.337Z,26.8
2022-08-18T13:47:38.210Z,26.5
2022-08-18T13:52:41.204Z,26.2
2022-08-18T13:57:36.693Z,26.0
2022-08-18T14:02:36.789Z,25.9
2022-08-18T14:07:36.698Z,25.8
2022-08-18T14:12:36.697Z,25.8
2022-08-18T14:17:36.700Z,25.8
2022-08-18T14:22:36.703Z,25.8
2022-08-18T14:27:36.703Z,25.7
2022-08-18T14:32:36.703Z,25.6
2022-08-18T14:37:36.701Z,25.7
2022-08-18T14:42:41.664Z,26.0
2022-08-18T14:47:37.330Z,26.3
2022-08-18T14:52:36.704Z,26.9
2022-08-18T14:57:36.713Z,27.4
2022-08-18T15:02:36.703Z,27.9
2022-08-18T15:07:36.702Z,28.3
2022-08-18T15:12:36.700Z,28.7
2022-08-18T15:17:38.139Z,28.8
2022-08-18T15:22:36.717Z,28.8
2022-08-18T15:27:42.590Z,28.6
2022-08-18T15:32:36.718Z,28.5
2022-08-18T15:37:36.729Z,28.4
2022-08-18T15:42:36.728Z,28.5
2022-08-18T15:47:36.729Z,28.5
2022-08-18T15:52:36.738Z,28.8
2022-08-18T15:57:51.896Z,29.1
2022-08-18T16:02:39.061Z,29.3
2022-08-18T16:07:41.291Z,29.4
2022-08-18T16:12:36.754Z,29.5
2022-08-18T16:17:36.756Z,29.6
2022-08-18T16:22:36.759Z,29.6
2022-08-18T16:27:36.759Z,29.3
2022-08-18T16:32:36.761Z,29.0
2022-08-18T16:37:36.776Z,28.7
2022-08-18T16:42:36.767Z,28.5
2022-08-18T16:47:36.782Z,28.3
2022-08-18T16:52:36.774Z,28.3
2022-08-18T16:57:50.712Z,28.4
2022-08-18T17:02:36.790Z,28.5
2022-08-18T17:07:36.784Z,28.5
2022-08-18T17:12:36.783Z,28.5
2022-08-18T17:17:36.791Z,28.5
2022-08-18T17:22:36.795Z,28.3
2022-08-18T17:27:37.985Z,28.0
2022-08-18T17:37:36.788Z,27.6
2022-08-18T17:42:40.104Z,27.5
2022-08-18T17:47:36.792Z,27.3
2022-08-18T17:52:36.792Z,27.3
2022-08-18T17:57:36.799Z,27.3
2022-08-18T18:02:36.795Z,27.3
2022-08-18T18:07:38.361Z,27.3
2022-08-18T18:12:36.805Z,27.2
2022-08-18T18:17:36.803Z,27.1
2022-08-18T18:22:36.805Z,26.8
2022-08-18T18:27:36.811Z,26.5
2022-08-18T18:32:36.806Z,26.3
2022-08-18T18:37:36.811Z,26.0
2022-08-18T18:42:36.807Z,25.8
2022-08-18T18:47:36.820Z,25.6
2022-08-18T18:52:36.811Z,25.4
2022-08-18T18:57:36.814Z,25.2
2022-08-18T19:02:36.816Z,24.9
2022-08-18T19:07:36.808Z,24.7
2022-08-18T19:12:36.815Z,24.6
2022-08-18T19:17:36.817Z,24.4
2022-08-18T19:22:36.813Z,24.2
2022-08-18T19:27:36.821Z,24.1
2022-08-18T19:32:36.819Z,23.9
2022-08-18T19:37:36.823Z,23.6
2022-08-18T19:42:36.820Z,23.5
2022-08-18T19:47:36.822Z,23.3
2022-08-18T19:52:45.894Z,23.2
2022-08-18T19:57:36.826Z,23.1
2022-08-18T20:02:36.821Z,22.9
2022-08-18T20:07:36.829Z,22.8
2022-08-18T20:12:36.830Z,22.7
2022-08-18T20:17:36.837Z,22.6
2022-08-18T20:22:36.829Z,22.5
2022-08-18T20:27:36.840Z,22.4
2022-08-18T20:32:36.828Z,22.3
2022-08-18T20:37:36.834Z,22.2
2022-08-18T20:42:36.838Z,22.1
2022-08-18T20:47:36.835Z,22.0
2022-08-18T20:52:38.056Z,21.8
2022-08-18T20:57:36.842Z,21.8
2022-08-18T21:02:36.840Z,21.7
2022-08-18T21:07:37.724Z,21.6
2022-08-18T21:12:36.843Z,21.5
2022-08-18T21:17:36.847Z,21.4
2022-08-18T21:22:36.844Z,21.3
2022-08-18T21:27:36.844Z,21.2
2022-08-18T21:32:36.851Z,21.2
2022-08-18T21:37:36.846Z,21.1
2022-08-18T21:47:36.850Z,21.0
2022-08-18T21:52:36.865Z,20.9
2022-08-18T21:57:36.853Z,20.8
2022-08-18T22:02:36.851Z,20.7
2022-08-18T22:07:36.853Z,20.7
2022-08-18T22:12:36.857Z,20.6
2022-08-18T22:17:36.859Z,20.5
2022-08-18T22:22:36.868Z,20.4
2022-08-18T22:27:36.860Z,20.4
2022-08-18T22:32:36.862Z,20.3
2022-08-18T22:37:36.879Z,20.2
2022-08-18T22:42:36.880Z,20.2
2022-08-18T22:47:43.724Z,20.1
2022-08-18T22:52:36.878Z,20.0
2022-08-18T22:57:36.878Z,20.0
2022-08-18T23:02:36.883Z,19.9
2022-08-18T23:07:36.874Z,19.8
2022-08-18T23:12:36.874Z,19.8
2022-08-18T23:17:36.876Z,19.7
2022-08-18T23:27:36.881Z,19.6
2022-08-18T23:32:36.882Z,19.5
2022-08-18T23:47:36.894Z,19.3
2022-08-18T23:52:36.892Z,19.2
2022-08-18T23:57:36.901Z,19.2
